sensor_id;sensor_type;location;lat;lon;timestamp;temperature;humidity
29345;DHT22;16339;48.748;2.222;2023-03-26T00:02:11;14.90;83.80
29345;DHT22;16339;48.748;2.222;2023-03-26T00:04:41;14.80;83.50
29345;DHT22;16339;48.748;2.222;2023-03-26T00:07:11;14.80;83.00
29345;DHT22;16339;48.748;2.222;2023-03-26T00:09:40;14.90;83.70
29345;DHT22;16339;48.748;2.222;2023-03-26T00:12:11;14.90;83.30
29345;DHT22;16339;48.748;2.222;2023-03-26T00:14:42;14.90;83.80
29345;DHT22;16339;48.748;2.222;2023-03-26T00:17:11;14.90;84.60
29345;DHT22;16339;48.748;2.222;2023-03-26T00:19:40;14.80;85.30
29345;DHT22;16339;48.748;2.222;2023-03-26T00:22:09;14.80;84.90
29345;DHT22;16339;48.748;2.222;2023-03-26T00:24:39;14.80;85.30
29345;DHT22;16339;48.748;2.222;2023-03-26T00:27:10;14.70;85.60
29345;DHT22;16339;48.748;2.222;2023-03-26T00:29:42;14.70;85.50
29345;DHT22;16339;48.748;2.222;2023-03-26T00:32:12;14.60;85.90
29345;DHT22;16339;48.748;2.222;2023-03-26T00:34:41;14.60;86.80
29345;DHT22;16339;48.748;2.222;2023-03-26T00:37:10;14.50;87.20
29345;DHT22;16339;48.748;2.222;2023-03-26T00:39:40;14.40;88.30
29345;DHT22;16339;48.748;2.222;2023-03-26T00:42:09;14.40;88.80
29345;DHT22;16339;48.748;2.222;2023-03-26T00:44:42;14.40;90.00
29345;DHT22;16339;48.748;2.222;2023-03-26T00:47:11;14.40;89.60
29345;DHT22;16339;48.748;2.222;2023-03-26T00:49:39;14.50;89.70
29345;DHT22;16339;48.748;2.222;2023-03-26T00:52:11;14.50;90.10
29345;DHT22;16339;48.748;2.222;2023-03-26T00:54:43;14.60;90.30
29345;DHT22;16339;48.748;2.222;2023-03-26T00:57:13;14.60;90.30
29345;DHT22;16339;48.748;2.222;2023-03-26T00:59:45;14.60;90.40
29345;DHT22;16339;48.748;2.222;2023-03-26T01:02:16;14.60;90.50
29345;DHT22;16339;48.748;2.222;2023-03-26T01:04:47;14.70;90.60
29345;DHT22;16339;48.748;2.222;2023-03-26T01:07:22;14.70;90.80
29345;DHT22;16339;48.748;2.222;2023-03-26T01:09:56;14.70;90.90
29345;DHT22;16339;48.748;2.222;2023-03-26T01:12:27;14.60;90.90
29345;DHT22;16339;48.748;2.222;2023-03-26T01:15:06;14.60;90.90
29345;DHT22;16339;48.748;2.222;2023-03-26T01:17:35;14.60;90.80
29345;DHT22;16339;48.748;2.222;2023-03-26T01:20:10;14.50;91.00
29345;DHT22;16339;48.748;2.222;2023-03-26T01:22:44;14.50;91.20
29345;DHT22;16339;48.748;2.222;2023-03-26T01:25:19;14.30;91.20
29345;DHT22;16339;48.748;2.222;2023-03-26T01:27:53;14.30;91.60
29345;DHT22;16339;48.748;2.222;2023-03-26T01:30:27;14.20;92.00
29345;DHT22;16339;48.748;2.222;2023-03-26T01:33:02;14.30;92.30
29345;DHT22;16339;48.748;2.222;2023-03-26T01:35:43;14.20;92.10
29345;DHT22;16339;48.748;2.222;2023-03-26T01:38:21;14.00;92.10
29345;DHT22;16339;48.748;2.222;2023-03-26T01:40:59;14.10;92.50
29345;DHT22;16339;48.748;2.222;2023-03-26T01:43:35;14.10;92.60
29345;DHT22;16339;48.748;2.222;2023-03-26T01:46:08;14.20;92.60
29345;DHT22;16339;48.748;2.222;2023-03-26T01:48:39;14.20;92.50
29345;DHT22;16339;48.748;2.222;2023-03-26T01:51:10;14.30;92.50
29345;DHT22;16339;48.748;2.222;2023-03-26T01:53:42;14.30;92.40
29345;DHT22;16339;48.748;2.222;2023-03-26T01:56:19;14.40;92.40
29345;DHT22;16339;48.748;2.222;2023-03-26T01:59:03;14.30;92.50
29345;DHT22;16339;48.748;2.222;2023-03-26T02:01:40;14.30;92.60
29345;DHT22;16339;48.748;2.222;2023-03-26T02:04:20;14.30;92.70
29345;DHT22;16339;48.748;2.222;2023-03-26T02:06:54;14.20;92.80
29345;DHT22;16339;48.748;2.222;2023-03-26T02:09:33;14.20;92.90
29345;DHT22;16339;48.748;2.222;2023-03-26T02:12:07;14.20;93.00
29345;DHT22;16339;48.748;2.222;2023-03-26T02:14:37;14.20;93.00
29345;DHT22;16339;48.748;2.222;2023-03-26T02:17:07;14.20;93.40
29345;DHT22;16339;48.748;2.222;2023-03-26T02:19:35;14.20;93.00
29345;DHT22;16339;48.748;2.222;2023-03-26T02:22:06;14.20;93.00
29345;DHT22;16339;48.748;2.222;2023-03-26T02:24:36;14.10;93.00
29345;DHT22;16339;48.748;2.222;2023-03-26T02:27:07;13.90;93.00
29345;DHT22;16339;48.748;2.222;2023-03-26T02:29:37;13.90;93.20
29345;DHT22;16339;48.748;2.222;2023-03-26T02:32:09;13.90;93.30
29345;DHT22;16339;48.748;2.222;2023-03-26T02:34:39;14.00;93.60
29345;DHT22;16339;48.748;2.222;2023-03-26T02:37:08;14.00;93.00
29345;DHT22;16339;48.748;2.222;2023-03-26T02:39:37;14.00;93.10
29345;DHT22;16339;48.748;2.222;2023-03-26T02:42:09;14.00;93.30
29345;DHT22;16339;48.748;2.222;2023-03-26T02:44:38;14.00;93.10
29345;DHT22;16339;48.748;2.222;2023-03-26T02:47:07;14.00;93.00
29345;DHT22;16339;48.748;2.222;2023-03-26T02:49:35;13.80;93.10
29345;DHT22;16339;48.748;2.222;2023-03-26T02:52:04;13.90;93.30
29345;DHT22;16339;48.748;2.222;2023-03-26T02:54:36;14.00;93.30
29345;DHT22;16339;48.748;2.222;2023-03-26T02:57:04;14.00;93.00
29345;DHT22;16339;48.748;2.222;2023-03-26T02:59:36;13.90;93.10
29345;DHT22;16339;48.748;2.222;2023-03-26T03:02:04;13.50;93.40
29345;DHT22;16339;48.748;2.222;2023-03-26T03:04:33;13.50;93.50
29345;DHT22;16339;48.748;2.222;2023-03-26T03:07:02;13.70;93.50
29345;DHT22;16339;48.748;2.222;2023-03-26T03:09:32;13.30;93.60
29345;DHT22;16339;48.748;2.222;2023-03-26T03:12:02;13.20;93.90
29345;DHT22;16339;48.748;2.222;2023-03-26T03:14:31;13.40;93.80
29345;DHT22;16339;48.748;2.222;2023-03-26T03:17:06;13.40;93.60
29345;DHT22;16339;48.748;2.222;2023-03-26T03:19:35;13.50;93.60
29345;DHT22;16339;48.748;2.222;2023-03-26T03:22:04;13.40;93.50
29345;DHT22;16339;48.748;2.222;2023-03-26T03:24:32;13.20;93.60
29345;DHT22;16339;48.748;2.222;2023-03-26T03:27:01;13.30;93.60
29345;DHT22;16339;48.748;2.222;2023-03-26T03:29:30;13.40;93.30
29345;DHT22;16339;48.748;2.222;2023-03-26T03:31:59;13.00;93.30
29345;DHT22;16339;48.748;2.222;2023-03-26T03:34:30;12.90;93.40
29345;DHT22;16339;48.748;2.222;2023-03-26T03:36:59;13.00;93.20
29345;DHT22;16339;48.748;2.222;2023-03-26T03:39:28;13.10;92.80
29345;DHT22;16339;48.748;2.222;2023-03-26T03:41:58;13.00;93.10
29345;DHT22;16339;48.748;2.222;2023-03-26T03:44:27;13.00;92.80
29345;DHT22;16339;48.748;2.222;2023-03-26T03:46:56;12.90;93.00
29345;DHT22;16339;48.748;2.222;2023-03-26T03:49:25;12.60;93.20
29345;DHT22;16339;48.748;2.222;2023-03-26T03:51:56;12.90;93.20
29345;DHT22;16339;48.748;2.222;2023-03-26T03:54:26;12.70;92.80
29345;DHT22;16339;48.748;2.222;2023-03-26T03:56:55;12.80;93.00
29345;DHT22;16339;48.748;2.222;2023-03-26T03:59:24;12.60;92.70
29345;DHT22;16339;48.748;2.222;2023-03-26T04:01:53;12.60;92.70
29345;DHT22;16339;48.748;2.222;2023-03-26T04:04:21;12.60;92.70
29345;DHT22;16339;48.748;2.222;2023-03-26T04:06:50;12.50;92.80
29345;DHT22;16339;48.748;2.222;2023-03-26T04:09:22;12.80;92.60
29345;DHT22;16339;48.748;2.222;2023-03-26T04:11:51;13.00;92.30
29345;DHT22;16339;48.748;2.222;2023-03-26T04:14:20;12.80;92.50
29345;DHT22;16339;48.748;2.222;2023-03-26T04:16:48;13.00;92.50
29345;DHT22;16339;48.748;2.222;2023-03-26T04:19:17;13.00;92.00
29345;DHT22;16339;48.748;2.222;2023-03-26T04:21:46;13.00;92.10
29345;DHT22;16339;48.748;2.222;2023-03-26T04:24:15;13.10;91.90
29345;DHT22;16339;48.748;2.222;2023-03-26T04:26:48;13.10;91.90
29345;DHT22;16339;48.748;2.222;2023-03-26T04:29:17;13.20;91.80
29345;DHT22;16339;48.748;2.222;2023-03-26T04:31:51;12.90;92.00
29345;DHT22;16339;48.748;2.222;2023-03-26T04:34:23;12.70;91.80
29345;DHT22;16339;48.748;2.222;2023-03-26T04:36:54;12.60;92.00
29345;DHT22;16339;48.748;2.222;2023-03-26T04:39:23;12.40;92.10
29345;DHT22;16339;48.748;2.222;2023-03-26T04:41:56;12.50;92.00
29345;DHT22;16339;48.748;2.222;2023-03-26T04:44:25;12.30;92.10
29345;DHT22;16339;48.748;2.222;2023-03-26T04:46:55;12.40;92.50
29345;DHT22;16339;48.748;2.222;2023-03-26T04:49:23;12.20;92.70
29345;DHT22;16339;48.748;2.222;2023-03-26T04:51:52;12.00;92.80
29345;DHT22;16339;48.748;2.222;2023-03-26T04:54:21;12.40;92.60
29345;DHT22;16339;48.748;2.222;2023-03-26T04:56:56;12.40;92.10
29345;DHT22;16339;48.748;2.222;2023-03-26T04:59:28;12.50;92.30
29345;DHT22;16339;48.748;2.222;2023-03-26T05:02:00;12.40;92.10
29345;DHT22;16339;48.748;2.222;2023-03-26T05:04:29;12.40;92.20
29345;DHT22;16339;48.748;2.222;2023-03-26T05:06:59;12.30;92.00
29345;DHT22;16339;48.748;2.222;2023-03-26T05:09:28;12.40;92.00
29345;DHT22;16339;48.748;2.222;2023-03-26T05:12:00;12.10;92.20
29345;DHT22;16339;48.748;2.222;2023-03-26T05:14:29;12.40;92.00
29345;DHT22;16339;48.748;2.222;2023-03-26T05:16:57;12.30;92.10
29345;DHT22;16339;48.748;2.222;2023-03-26T05:19:30;12.20;91.80
29345;DHT22;16339;48.748;2.222;2023-03-26T05:21:59;12.30;92.10
29345;DHT22;16339;48.748;2.222;2023-03-26T05:24:28;12.40;91.80
29345;DHT22;16339;48.748;2.222;2023-03-26T05:27:00;12.50;91.50
29345;DHT22;16339;48.748;2.222;2023-03-26T05:29:28;12.50;91.20
29345;DHT22;16339;48.748;2.222;2023-03-26T05:31:57;12.40;91.30
29345;DHT22;16339;48.748;2.222;2023-03-26T05:34:26;12.30;91.10
29345;DHT22;16339;48.748;2.222;2023-03-26T05:36:54;12.30;91.30
29345;DHT22;16339;48.748;2.222;2023-03-26T05:39:23;12.40;91.10
29345;DHT22;16339;48.748;2.222;2023-03-26T05:41:57;12.40;91.30
29345;DHT22;16339;48.748;2.222;2023-03-26T05:44:28;12.40;91.00
29345;DHT22;16339;48.748;2.222;2023-03-26T05:46:56;12.10;91.50
29345;DHT22;16339;48.748;2.222;2023-03-26T05:49:25;12.20;91.20
29345;DHT22;16339;48.748;2.222;2023-03-26T05:51:54;12.00;91.40
29345;DHT22;16339;48.748;2.222;2023-03-26T05:54:23;12.40;91.20
29345;DHT22;16339;48.748;2.222;2023-03-26T05:56:52;12.40;91.00
29345;DHT22;16339;48.748;2.222;2023-03-26T05:59:22;12.50;90.70
29345;DHT22;16339;48.748;2.222;2023-03-26T06:01:54;12.40;91.00
29345;DHT22;16339;48.748;2.222;2023-03-26T06:04:27;12.40;90.50
29345;DHT22;16339;48.748;2.222;2023-03-26T06:06:56;12.20;90.90
29345;DHT22;16339;48.748;2.222;2023-03-26T06:09:26;12.40;90.80
29345;DHT22;16339;48.748;2.222;2023-03-26T06:11:56;12.30;90.70
29345;DHT22;16339;48.748;2.222;2023-03-26T06:14:25;12.30;91.00
29345;DHT22;16339;48.748;2.222;2023-03-26T06:16:56;12.50;90.80
29345;DHT22;16339;48.748;2.222;2023-03-26T06:19:25;12.50;90.80
29345;DHT22;16339;48.748;2.222;2023-03-26T06:21:54;12.60;90.50
29345;DHT22;16339;48.748;2.222;2023-03-26T06:24:23;12.50;90.50
29345;DHT22;16339;48.748;2.222;2023-03-26T06:26:51;12.50;90.50
29345;DHT22;16339;48.748;2.222;2023-03-26T06:29:21;12.40;90.60
29345;DHT22;16339;48.748;2.222;2023-03-26T06:31:50;12.60;90.60
29345;DHT22;16339;48.748;2.222;2023-03-26T06:34:22;12.60;90.40
29345;DHT22;16339;48.748;2.222;2023-03-26T06:36:50;12.50;90.40
29345;DHT22;16339;48.748;2.222;2023-03-26T06:39:22;12.50;90.30
29345;DHT22;16339;48.748;2.222;2023-03-26T06:41:50;12.50;90.30
29345;DHT22;16339;48.748;2.222;2023-03-26T06:44:19;12.30;90.80
29345;DHT22;16339;48.748;2.222;2023-03-26T06:46:48;12.50;90.70
29345;DHT22;16339;48.748;2.222;2023-03-26T06:49:17;12.60;90.50
29345;DHT22;16339;48.748;2.222;2023-03-26T06:51:48;12.70;90.50
29345;DHT22;16339;48.748;2.222;2023-03-26T06:54:18;12.70;90.30
29345;DHT22;16339;48.748;2.222;2023-03-26T06:56:47;12.60;90.40
29345;DHT22;16339;48.748;2.222;2023-03-26T06:59:15;12.80;90.40
29345;DHT22;16339;48.748;2.222;2023-03-26T07:01:44;12.80;90.50
29345;DHT22;16339;48.748;2.222;2023-03-26T07:04:13;12.70;90.60
29345;DHT22;16339;48.748;2.222;2023-03-26T07:06:44;12.70;90.60
29345;DHT22;16339;48.748;2.222;2023-03-26T07:09:17;12.70;90.50
29345;DHT22;16339;48.748;2.222;2023-03-26T07:11:48;12.80;90.90
29345;DHT22;16339;48.748;2.222;2023-03-26T07:14:17;12.80;90.50
29345;DHT22;16339;48.748;2.222;2023-03-26T07:16:48;12.80;90.50
29345;DHT22;16339;48.748;2.222;2023-03-26T07:19:17;12.90;90.30
29345;DHT22;16339;48.748;2.222;2023-03-26T07:21:46;13.10;90.10
29345;DHT22;16339;48.748;2.222;2023-03-26T07:24:19;12.80;90.30
29345;DHT22;16339;48.748;2.222;2023-03-26T07:26:55;12.80;90.40
29345;DHT22;16339;48.748;2.222;2023-03-26T07:29:32;13.00;90.50
29345;DHT22;16339;48.748;2.222;2023-03-26T07:32:08;13.10;90.10
29345;DHT22;16339;48.748;2.222;2023-03-26T07:34:48;12.70;90.50
29345;DHT22;16339;48.748;2.222;2023-03-26T07:37:27;12.80;90.70
29345;DHT22;16339;48.748;2.222;2023-03-26T07:40:08;13.10;90.50
29345;DHT22;16339;48.748;2.222;2023-03-26T07:42:48;13.20;90.20
29345;DHT22;16339;48.748;2.222;2023-03-26T07:45:23;13.30;90.00
29345;DHT22;16339;48.748;2.222;2023-03-26T07:47:54;13.40;90.10
29345;DHT22;16339;48.748;2.222;2023-03-26T07:50:24;13.30;90.20
29345;DHT22;16339;48.748;2.222;2023-03-26T07:52:54;13.30;90.30
29345;DHT22;16339;48.748;2.222;2023-03-26T07:55:28;13.30;90.30
29345;DHT22;16339;48.748;2.222;2023-03-26T07:58:03;13.30;90.40
29345;DHT22;16339;48.748;2.222;2023-03-26T08:00:47;13.10;90.50
29345;DHT22;16339;48.748;2.222;2023-03-26T08:03:24;13.30;90.50
29345;DHT22;16339;48.748;2.222;2023-03-26T08:06:02;13.10;90.60
29345;DHT22;16339;48.748;2.222;2023-03-26T08:08:37;13.00;90.60
29345;DHT22;16339;48.748;2.222;2023-03-26T08:11:21;13.00;90.60
29345;DHT22;16339;48.748;2.222;2023-03-26T08:14:00;12.90;90.50
29345;DHT22;16339;48.748;2.222;2023-03-26T08:16:34;13.20;90.50
29345;DHT22;16339;48.748;2.222;2023-03-26T08:19:09;13.30;90.20
29345;DHT22;16339;48.748;2.222;2023-03-26T08:21:46;13.10;90.80
29345;DHT22;16339;48.748;2.222;2023-03-26T08:24:23;13.10;90.30
29345;DHT22;16339;48.748;2.222;2023-03-26T08:27:00;13.30;90.10
29345;DHT22;16339;48.748;2.222;2023-03-26T08:29:34;13.40;89.70
29345;DHT22;16339;48.748;2.222;2023-03-26T08:32:12;13.20;89.90
29345;DHT22;16339;48.748;2.222;2023-03-26T08:34:41;13.20;90.00
29345;DHT22;16339;48.748;2.222;2023-03-26T08:37:13;13.40;89.50
29345;DHT22;16339;48.748;2.222;2023-03-26T08:39:43;13.30;89.30
29345;DHT22;16339;48.748;2.222;2023-03-26T08:51:57;13.40;88.00
29345;DHT22;16339;48.748;2.222;2023-03-26T08:54:57;13.60;87.70
29345;DHT22;16339;48.748;2.222;2023-03-26T09:03:52;13.40;85.40
29345;DHT22;16339;48.748;2.222;2023-03-26T09:10:14;13.50;86.10
29345;DHT22;16339;48.748;2.222;2023-03-26T09:13:11;13.50;85.50
29345;DHT22;16339;48.748;2.222;2023-03-26T09:19:29;13.40;86.40
29345;DHT22;16339;48.748;2.222;2023-03-26T09:22:22;13.20;85.20
29345;DHT22;16339;48.748;2.222;2023-03-26T09:25:20;13.20;86.30
29345;DHT22;16339;48.748;2.222;2023-03-26T09:31:37;13.50;86.00
29345;DHT22;16339;48.748;2.222;2023-03-26T09:35:42;13.50;86.20
29345;DHT22;16339;48.748;2.222;2023-03-26T09:40:49;13.50;87.60
29345;DHT22;16339;48.748;2.222;2023-03-26T09:50:48;13.20;88.00
29345;DHT22;16339;48.748;2.222;2023-03-26T09:57:25;13.20;88.80
29345;DHT22;16339;48.748;2.222;2023-03-26T10:07:02;13.00;89.40
29345;DHT22;16339;48.748;2.222;2023-03-26T10:10:24;13.00;89.70
29345;DHT22;16339;48.748;2.222;2023-03-26T10:13:32;13.00;89.60
29345;DHT22;16339;48.748;2.222;2023-03-26T10:23:40;13.30;89.10
29345;DHT22;16339;48.748;2.222;2023-03-26T10:30:29;13.30;89.40
29345;DHT22;16339;48.748;2.222;2023-03-26T10:33:32;13.70;88.70
29345;DHT22;16339;48.748;2.222;2023-03-26T10:36:44;13.60;88.30
29345;DHT22;16339;48.748;2.222;2023-03-26T10:59:25;14.80;86.00
29345;DHT22;16339;48.748;2.222;2023-03-26T11:16:14;14.80;85.50
29345;DHT22;16339;48.748;2.222;2023-03-26T11:46:25;14.90;79.70
29345;DHT22;16339;48.748;2.222;2023-03-26T11:49:38;15.20;79.70
29345;DHT22;16339;48.748;2.222;2023-03-26T11:52:20;15.20;79.40
29345;DHT22;16339;48.748;2.222;2023-03-26T11:55:27;15.00;78.90
29345;DHT22;16339;48.748;2.222;2023-03-26T11:58:25;15.00;80.80
29345;DHT22;16339;48.748;2.222;2023-03-26T12:20:35;15.40;80.30
29345;DHT22;16339;48.748;2.222;2023-03-26T12:23:42;15.30;80.50
29345;DHT22;16339;48.748;2.222;2023-03-26T12:26:17;15.20;82.30
29345;DHT22;16339;48.748;2.222;2023-03-26T12:28:48;15.60;81.00
29345;DHT22;16339;48.748;2.222;2023-03-26T12:31:20;15.60;80.00
29345;DHT22;16339;48.748;2.222;2023-03-26T12:34:06;15.60;78.80
29345;DHT22;16339;48.748;2.222;2023-03-26T12:36:57;15.70;77.60
29345;DHT22;16339;48.748;2.222;2023-03-26T12:39:32;15.50;76.60
29345;DHT22;16339;48.748;2.222;2023-03-26T12:42:04;15.50;77.40
29345;DHT22;16339;48.748;2.222;2023-03-26T12:44:43;15.40;77.30
29345;DHT22;16339;48.748;2.222;2023-03-26T12:47:16;15.20;77.40
29345;DHT22;16339;48.748;2.222;2023-03-26T12:49:52;15.20;78.20
29345;DHT22;16339;48.748;2.222;2023-03-26T12:55:38;15.00;78.60
29345;DHT22;16339;48.748;2.222;2023-03-26T12:58:25;14.70;80.40
29345;DHT22;16339;48.748;2.222;2023-03-26T13:01:06;14.20;82.20
29345;DHT22;16339;48.748;2.222;2023-03-26T13:06:39;13.90;84.80
29345;DHT22;16339;48.748;2.222;2023-03-26T13:09:35;13.60;85.40
29345;DHT22;16339;48.748;2.222;2023-03-26T13:12:10;13.50;87.90
29345;DHT22;16339;48.748;2.222;2023-03-26T13:15:01;13.80;89.40
29345;DHT22;16339;48.748;2.222;2023-03-26T13:17:36;13.80;88.90
29345;DHT22;16339;48.748;2.222;2023-03-26T13:20:11;13.90;89.70
29345;DHT22;16339;48.748;2.222;2023-03-26T13:22:53;14.30;89.40
29345;DHT22;16339;48.748;2.222;2023-03-26T13:25:32;14.60;87.70
29345;DHT22;16339;48.748;2.222;2023-03-26T13:28:18;14.80;86.20
29345;DHT22;16339;48.748;2.222;2023-03-26T13:30:56;14.90;86.00
29345;DHT22;16339;48.748;2.222;2023-03-26T13:33:44;15.20;85.20
29345;DHT22;16339;48.748;2.222;2023-03-26T13:36:17;15.40;84.20
29345;DHT22;16339;48.748;2.222;2023-03-26T13:39:02;15.30;83.90
29345;DHT22;16339;48.748;2.222;2023-03-26T13:41:49;15.70;83.70
29345;DHT22;16339;48.748;2.222;2023-03-26T13:44:28;15.50;82.90
29345;DHT22;16339;48.748;2.222;2023-03-26T13:47:01;14.80;87.70
29345;DHT22;16339;48.748;2.222;2023-03-26T13:49:36;14.10;90.70
29345;DHT22;16339;48.748;2.222;2023-03-26T13:52:10;13.80;91.80
29345;DHT22;16339;48.748;2.222;2023-03-26T13:54:47;13.70;91.80
29345;DHT22;16339;48.748;2.222;2023-03-26T13:57:20;13.80;93.10
29345;DHT22;16339;48.748;2.222;2023-03-26T13:59:54;14.10;94.40
29345;DHT22;16339;48.748;2.222;2023-03-26T14:02:29;14.30;94.60
29345;DHT22;16339;48.748;2.222;2023-03-26T14:05:04;14.60;95.20
29345;DHT22;16339;48.748;2.222;2023-03-26T14:07:41;14.80;94.20
29345;DHT22;16339;48.748;2.222;2023-03-26T14:10:20;14.80;93.60
29345;DHT22;16339;48.748;2.222;2023-03-26T14:12:56;15.00;95.00
29345;DHT22;16339;48.748;2.222;2023-03-26T14:15:30;15.10;93.80
29345;DHT22;16339;48.748;2.222;2023-03-26T14:18:09;15.10;93.30
29345;DHT22;16339;48.748;2.222;2023-03-26T14:21:00;15.40;92.00
29345;DHT22;16339;48.748;2.222;2023-03-26T14:26:52;15.10;91.00
29345;DHT22;16339;48.748;2.222;2023-03-26T14:29:40;15.40;94.10
29345;DHT22;16339;48.748;2.222;2023-03-26T14:32:25;15.50;93.90
29345;DHT22;16339;48.748;2.222;2023-03-26T14:35:23;15.60;91.40
29345;DHT22;16339;48.748;2.222;2023-03-26T14:41:18;15.80;91.80
29345;DHT22;16339;48.748;2.222;2023-03-26T14:44:29;15.90;90.40
29345;DHT22;16339;48.748;2.222;2023-03-26T14:47:14;15.80;91.40
29345;DHT22;16339;48.748;2.222;2023-03-26T14:52:47;15.70;86.10
29345;DHT22;16339;48.748;2.222;2023-03-26T14:55:20;15.50;84.50
29345;DHT22;16339;48.748;2.222;2023-03-26T14:58:14;15.30;85.40
29345;DHT22;16339;48.748;2.222;2023-03-26T15:01:20;15.40;83.50
29345;DHT22;16339;48.748;2.222;2023-03-26T16:01:05;15.10;84.30
29345;DHT22;16339;48.748;2.222;2023-03-26T16:07:22;15.50;83.00
29345;DHT22;16339;48.748;2.222;2023-03-26T16:07:46;15.50;83.80
29345;DHT22;16339;48.748;2.222;2023-03-26T16:10:27;15.50;83.80
29345;DHT22;16339;48.748;2.222;2023-03-26T16:22:40;14.70;82.90
29345;DHT22;16339;48.748;2.222;2023-03-26T16:25:32;14.40;84.30
29345;DHT22;16339;48.748;2.222;2023-03-26T16:28:19;14.60;84.10
29345;DHT22;16339;48.748;2.222;2023-03-26T16:31:18;14.30;84.80
29345;DHT22;16339;48.748;2.222;2023-03-26T16:33:56;14.20;84.30
29345;DHT22;16339;48.748;2.222;2023-03-26T16:36:30;14.00;85.00
29345;DHT22;16339;48.748;2.222;2023-03-26T16:39:40;14.20;84.80
29345;DHT22;16339;48.748;2.222;2023-03-26T16:42:37;14.00;84.10
29345;DHT22;16339;48.748;2.222;2023-03-26T16:45:41;13.90;84.50
29345;DHT22;16339;48.748;2.222;2023-03-26T16:48:22;14.20;85.50
29345;DHT22;16339;48.748;2.222;2023-03-26T16:51:07;14.40;84.60
29345;DHT22;16339;48.748;2.222;2023-03-26T16:53:58;14.20;83.70
29345;DHT22;16339;48.748;2.222;2023-03-26T16:59:51;14.30;84.40
29345;DHT22;16339;48.748;2.222;2023-03-26T17:02:31;14.20;83.80
29345;DHT22;16339;48.748;2.222;2023-03-26T17:05:17;13.80;83.90
29345;DHT22;16339;48.748;2.222;2023-03-26T17:08:06;13.50;85.10
29345;DHT22;16339;48.748;2.222;2023-03-26T17:10:58;13.70;85.40
29345;DHT22;16339;48.748;2.222;2023-03-26T17:13:40;13.80;85.20
29345;DHT22;16339;48.748;2.222;2023-03-26T17:16:32;13.40;85.40
29345;DHT22;16339;48.748;2.222;2023-03-26T17:19:21;13.30;85.30
29345;DHT22;16339;48.748;2.222;2023-03-26T17:22:07;13.40;86.30
29345;DHT22;16339;48.748;2.222;2023-03-26T17:24:47;13.00;86.80
29345;DHT22;16339;48.748;2.222;2023-03-26T17:27:28;13.30;87.00
29345;DHT22;16339;48.748;2.222;2023-03-26T17:30:51;13.30;87.10
29345;DHT22;16339;48.748;2.222;2023-03-26T17:33:36;13.40;86.90
29345;DHT22;16339;48.748;2.222;2023-03-26T17:36:29;13.40;86.90
29345;DHT22;16339;48.748;2.222;2023-03-26T17:41:59;13.50;86.70
29345;DHT22;16339;48.748;2.222;2023-03-26T17:44:50;13.60;86.70
29345;DHT22;16339;48.748;2.222;2023-03-26T17:47:30;13.50;86.10
29345;DHT22;16339;48.748;2.222;2023-03-26T17:50:13;13.70;86.50
29345;DHT22;16339;48.748;2.222;2023-03-26T17:52:55;13.30;87.10
29345;DHT22;16339;48.748;2.222;2023-03-26T17:55:37;13.30;86.50
29345;DHT22;16339;48.748;2.222;2023-03-26T17:58:21;13.50;86.40
29345;DHT22;16339;48.748;2.222;2023-03-26T18:00:56;13.50;86.70
29345;DHT22;16339;48.748;2.222;2023-03-26T18:03:28;13.70;85.70
29345;DHT22;16339;48.748;2.222;2023-03-26T18:06:05;13.40;85.10
29345;DHT22;16339;48.748;2.222;2023-03-26T18:08:49;13.30;86.10
29345;DHT22;16339;48.748;2.222;2023-03-26T18:11:59;13.20;85.30
29345;DHT22;16339;48.748;2.222;2023-03-26T18:14:48;13.30;86.50
29345;DHT22;16339;48.748;2.222;2023-03-26T18:17:20;13.10;85.90
29345;DHT22;16339;48.748;2.222;2023-03-26T18:19:52;13.00;86.20
29345;DHT22;16339;48.748;2.222;2023-03-26T18:22:26;13.10;87.10
29345;DHT22;16339;48.748;2.222;2023-03-26T18:24:58;13.30;87.00
29345;DHT22;16339;48.748;2.222;2023-03-26T18:27:34;13.40;86.10
29345;DHT22;16339;48.748;2.222;2023-03-26T18:30:14;13.40;86.00
29345;DHT22;16339;48.748;2.222;2023-03-26T18:32:49;13.50;86.10
29345;DHT22;16339;48.748;2.222;2023-03-26T18:35:24;13.50;85.40
29345;DHT22;16339;48.748;2.222;2023-03-26T18:37:57;13.30;85.90
29345;DHT22;16339;48.748;2.222;2023-03-26T18:40:31;13.30;86.30
29345;DHT22;16339;48.748;2.222;2023-03-26T18:43:00;13.40;86.60
29345;DHT22;16339;48.748;2.222;2023-03-26T18:45:33;13.30;85.90
29345;DHT22;16339;48.748;2.222;2023-03-26T18:48:05;13.50;86.40
29345;DHT22;16339;48.748;2.222;2023-03-26T18:50:37;13.40;86.10
29345;DHT22;16339;48.748;2.222;2023-03-26T18:53:14;13.50;86.10
29345;DHT22;16339;48.748;2.222;2023-03-26T18:55:49;13.70;85.60
29345;DHT22;16339;48.748;2.222;2023-03-26T18:58:23;13.70;86.40
29345;DHT22;16339;48.748;2.222;2023-03-26T19:00:57;13.70;85.50
29345;DHT22;16339;48.748;2.222;2023-03-26T19:03:27;13.60;85.10
29345;DHT22;16339;48.748;2.222;2023-03-26T19:06:02;13.40;85.00
29345;DHT22;16339;48.748;2.222;2023-03-26T19:08:36;13.40;85.30
29345;DHT22;16339;48.748;2.222;2023-03-26T19:11:07;13.50;85.40
29345;DHT22;16339;48.748;2.222;2023-03-26T19:13:38;13.30;85.20
29345;DHT22;16339;48.748;2.222;2023-03-26T19:16:18;13.30;86.00
29345;DHT22;16339;48.748;2.222;2023-03-26T19:18:48;13.40;86.10
29345;DHT22;16339;48.748;2.222;2023-03-26T19:21:19;13.30;85.60
29345;DHT22;16339;48.748;2.222;2023-03-26T19:23:52;13.10;85.90
29345;DHT22;16339;48.748;2.222;2023-03-26T19:26:21;13.00;86.50
29345;DHT22;16339;48.748;2.222;2023-03-26T19:28:52;12.80;87.50
29345;DHT22;16339;48.748;2.222;2023-03-26T19:31:23;12.60;88.00
29345;DHT22;16339;48.748;2.222;2023-03-26T19:33:57;12.40;88.20
29345;DHT22;16339;48.748;2.222;2023-03-26T19:36:31;12.80;88.30
29345;DHT22;16339;48.748;2.222;2023-03-26T19:39:10;12.80;88.30
29345;DHT22;16339;48.748;2.222;2023-03-26T19:41:40;12.90;88.30
29345;DHT22;16339;48.748;2.222;2023-03-26T19:44:19;12.80;87.90
29345;DHT22;16339;48.748;2.222;2023-03-26T19:46:48;12.80;88.30
29345;DHT22;16339;48.748;2.222;2023-03-26T19:49:27;12.80;88.30
29345;DHT22;16339;48.748;2.222;2023-03-26T19:52:12;12.60;88.70
29345;DHT22;16339;48.748;2.222;2023-03-26T19:54:53;12.50;89.20
29345;DHT22;16339;48.748;2.222;2023-03-26T19:57:22;12.90;89.00
29345;DHT22;16339;48.748;2.222;2023-03-26T19:59:51;13.00;88.80
29345;DHT22;16339;48.748;2.222;2023-03-26T20:02:20;12.90;88.80
29345;DHT22;16339;48.748;2.222;2023-03-26T20:04:49;13.10;88.50
29345;DHT22;16339;48.748;2.222;2023-03-26T20:07:21;13.30;88.70
29345;DHT22;16339;48.748;2.222;2023-03-26T20:09:54;13.40;88.30
29345;DHT22;16339;48.748;2.222;2023-03-26T20:12:22;13.40;88.00
29345;DHT22;16339;48.748;2.222;2023-03-26T20:14:51;13.40;88.30
29345;DHT22;16339;48.748;2.222;2023-03-26T20:17:20;13.10;90.00